sensor_id;sensor_type;location;lat;lon;timestamp;P1;durP1;ratioP1;P2;durP2;ratioP2
56116;SDS011;41989;45.356;20.392;2023-05-07T00:01:18;9.70;;;5.10;;
56116;SDS011;41989;45.356;20.392;2023-05-07T00:03:45;11.00;;;5.50;;
56116;SDS011;41989;45.356;20.392;2023-05-07T00:06:11;9.82;;;5.25;;
56116;SDS011;41989;45.356;20.392;2023-05-07T00:08:38;10.52;;;5.63;;
56116;SDS011;41989;45.356;20.392;2023-05-07T00:11:04;8.23;;;5.35;;
56116;SDS011;41989;45.356;20.392;2023-05-07T00:13:30;9.32;;;5.30;;
56116;SDS011;41989;45.356;20.392;2023-05-07T00:16:00;10.85;;;5.45;;
56116;SDS011;41989;45.356;20.392;2023-05-07T00:18:26;11.75;;;6.50;;
56116;SDS011;41989;45.356;20.392;2023-05-07T00:20:52;9.32;;;6.35;;
56116;SDS011;41989;45.356;20.392;2023-05-07T00:23:18;11.15;;;5.40;;
56116;SDS011;41989;45.356;20.392;2023-05-07T00:25:45;9.68;;;4.93;;
56116;SDS011;41989;45.356;20.392;2023-05-07T00:28:14;10.25;;;5.25;;
56116;SDS011;41989;45.356;20.392;2023-05-07T00:30:40;9.30;;;5.18;;
56116;SDS011;41989;45.356;20.392;2023-05-07T00:33:06;7.57;;;5.10;;
56116;SDS011;41989;45.356;20.392;2023-05-07T00:35:32;10.20;;;6.47;;
56116;SDS011;41989;45.356;20.392;2023-05-07T00:37:58;8.02;;;5.60;;
56116;SDS011;41989;45.356;20.392;2023-05-07T00:40:24;7.70;;;5.85;;
56116;SDS011;41989;45.356;20.392;2023-05-07T00:42:51;9.43;;;5.53;;
56116;SDS011;41989;45.356;20.392;2023-05-07T00:45:22;7.45;;;5.15;;
56116;SDS011;41989;45.356;20.392;2023-05-07T00:47:49;6.85;;;5.82;;
56116;SDS011;41989;45.356;20.392;2023-05-07T00:50:15;6.57;;;5.10;;
56116;SDS011;41989;45.356;20.392;2023-05-07T00:52:42;7.78;;;5.00;;
56116;SDS011;41989;45.356;20.392;2023-05-07T00:55:08;8.32;;;5.20;;
56116;SDS011;41989;45.356;20.392;2023-05-07T00:57:37;9.27;;;5.82;;
56116;SDS011;41989;45.356;20.392;2023-05-07T01:00:05;10.00;;;5.63;;
56116;SDS011;41989;45.356;20.392;2023-05-07T01:02:33;8.48;;;5.40;;
56116;SDS011;41989;45.356;20.392;2023-05-07T01:04:59;8.60;;;5.47;;
56116;SDS011;41989;45.356;20.392;2023-05-07T01:07:26;7.63;;;5.00;;
56116;SDS011;41989;45.356;20.392;2023-05-07T01:09:52;7.88;;;5.45;;
56116;SDS011;41989;45.356;20.392;2023-05-07T01:12:19;9.77;;;5.43;;
56116;SDS011;41989;45.356;20.392;2023-05-07T01:14:45;10.15;;;5.38;;
56116;SDS011;41989;45.356;20.392;2023-05-07T01:17:13;7.53;;;5.45;;
56116;SDS011;41989;45.356;20.392;2023-05-07T01:19:39;8.32;;;5.32;;
56116;SDS011;41989;45.356;20.392;2023-05-07T01:22:07;7.30;;;5.03;;
56116;SDS011;41989;45.356;20.392;2023-05-07T01:24:37;9.20;;;5.72;;
56116;SDS011;41989;45.356;20.392;2023-05-07T01:27:03;7.20;;;5.35;;
56116;SDS011;41989;45.356;20.392;2023-05-07T01:29:29;8.85;;;5.75;;
56116;SDS011;41989;45.356;20.392;2023-05-07T01:31:57;8.02;;;5.80;;
56116;SDS011;41989;45.356;20.392;2023-05-07T01:34:27;8.85;;;5.72;;
56116;SDS011;41989;45.356;20.392;2023-05-07T01:36:54;7.47;;;5.28;;
56116;SDS011;41989;45.356;20.392;2023-05-07T01:39:24;7.20;;;5.47;;
56116;SDS011;41989;45.356;20.392;2023-05-07T01:41:51;10.93;;;5.72;;
56116;SDS011;41989;45.356;20.392;2023-05-07T01:44:18;9.60;;;5.60;;
56116;SDS011;41989;45.356;20.392;2023-05-07T01:46:45;9.90;;;6.15;;
56116;SDS011;41989;45.356;20.392;2023-05-07T01:49:12;8.40;;;5.85;;
56116;SDS011;41989;45.356;20.392;2023-05-07T01:51:38;8.85;;;5.38;;
56116;SDS011;41989;45.356;20.392;2023-05-07T01:54:05;8.20;;;5.95;;
56116;SDS011;41989;45.356;20.392;2023-05-07T01:56:31;8.60;;;5.30;;
56116;SDS011;41989;45.356;20.392;2023-05-07T01:58:57;10.32;;;6.55;;
56116;SDS011;41989;45.356;20.392;2023-05-07T02:01:23;8.45;;;6.47;;
56116;SDS011;41989;45.356;20.392;2023-05-07T02:03:50;6.20;;;5.15;;
56116;SDS011;41989;45.356;20.392;2023-05-07T02:06:16;13.45;;;5.53;;
56116;SDS011;41989;45.356;20.392;2023-05-07T02:08:46;7.70;;;5.57;;
56116;SDS011;41989;45.356;20.392;2023-05-07T02:11:12;9.52;;;5.55;;
56116;SDS011;41989;45.356;20.392;2023-05-07T02:13:38;9.77;;;6.00;;
56116;SDS011;41989;45.356;20.392;2023-05-07T02:16:04;8.73;;;6.88;;
56116;SDS011;41989;45.356;20.392;2023-05-07T02:18:30;8.65;;;5.97;;
56116;SDS011;41989;45.356;20.392;2023-05-07T02:20:57;11.95;;;6.72;;
56116;SDS011;41989;45.356;20.392;2023-05-07T02:23:23;12.25;;;5.95;;
56116;SDS011;41989;45.356;20.392;2023-05-07T02:25:49;11.13;;;6.20;;
56116;SDS011;41989;45.356;20.392;2023-05-07T02:28:15;9.45;;;6.13;;
56116;SDS011;41989;45.356;20.392;2023-05-07T02:30:42;8.60;;;5.95;;
56116;SDS011;41989;45.356;20.392;2023-05-07T02:33:08;15.90;;;6.78;;
56116;SDS011;41989;45.356;20.392;2023-05-07T02:35:34;9.73;;;6.97;;
56116;SDS011;41989;45.356;20.392;2023-05-07T02:38:00;9.32;;;6.65;;
56116;SDS011;41989;45.356;20.392;2023-05-07T02:40:27;9.52;;;6.35;;
56116;SDS011;41989;45.356;20.392;2023-05-07T02:42:53;11.07;;;6.90;;
56116;SDS011;41989;45.356;20.392;2023-05-07T02:45:19;8.85;;;6.03;;
56116;SDS011;41989;45.356;20.392;2023-05-07T02:47:46;10.57;;;6.75;;
56116;SDS011;41989;45.356;20.392;2023-05-07T02:50:12;10.82;;;6.75;;
56116;SDS011;41989;45.356;20.392;2023-05-07T02:52:38;10.73;;;5.82;;
56116;SDS011;41989;45.356;20.392;2023-05-07T02:55:04;13.75;;;7.18;;
56116;SDS011;41989;45.356;20.392;2023-05-07T02:57:31;9.35;;;7.25;;
56116;SDS011;41989;45.356;20.392;2023-05-07T02:59:57;11.10;;;7.00;;
56116;SDS011;41989;45.356;20.392;2023-05-07T03:02:24;11.57;;;7.40;;
56116;SDS011;41989;45.356;20.392;2023-05-07T03:04:50;12.93;;;7.55;;
56116;SDS011;41989;45.356;20.392;2023-05-07T03:07:16;10.02;;;7.40;;
56116;SDS011;41989;45.356;20.392;2023-05-07T03:09:42;13.68;;;7.57;;
56116;SDS011;41989;45.356;20.392;2023-05-07T03:12:08;10.13;;;6.97;;
56116;SDS011;41989;45.356;20.392;2023-05-07T03:14:37;13.93;;;7.45;;
56116;SDS011;41989;45.356;20.392;2023-05-07T03:17:03;9.68;;;7.90;;
56116;SDS011;41989;45.356;20.392;2023-05-07T03:19:29;11.50;;;7.15;;
56116;SDS011;41989;45.356;20.392;2023-05-07T03:21:55;10.02;;;6.68;;
56116;SDS011;41989;45.356;20.392;2023-05-07T03:24:21;15.52;;;7.65;;
56116;SDS011;41989;45.356;20.392;2023-05-07T03:26:47;10.15;;;7.10;;
56116;SDS011;41989;45.356;20.392;2023-05-07T03:29:13;13.82;;;7.28;;
56116;SDS011;41989;45.356;20.392;2023-05-07T03:31:40;9.43;;;7.00;;
56116;SDS011;41989;45.356;20.392;2023-05-07T03:34:06;14.32;;;6.45;;
56116;SDS011;41989;45.356;20.392;2023-05-07T03:36:32;10.05;;;6.85;;
56116;SDS011;41989;45.356;20.392;2023-05-07T03:39:01;15.07;;;6.60;;
56116;SDS011;41989;45.356;20.392;2023-05-07T03:41:27;21.55;;;7.72;;
56116;SDS011;41989;45.356;20.392;2023-05-07T03:43:54;13.60;;;8.18;;
56116;SDS011;41989;45.356;20.392;2023-05-07T03:46:20;12.52;;;7.57;;
56116;SDS011;41989;45.356;20.392;2023-05-07T03:48:46;13.70;;;7.65;;
56116;SDS011;41989;45.356;20.392;2023-05-07T03:51:12;12.75;;;8.07;;
56116;SDS011;41989;45.356;20.392;2023-05-07T03:53:38;11.80;;;7.00;;
56116;SDS011;41989;45.356;20.392;2023-05-07T03:56:05;10.82;;;7.47;;
56116;SDS011;41989;45.356;20.392;2023-05-07T03:58:34;12.52;;;8.23;;
56116;SDS011;41989;45.356;20.392;2023-05-07T04:01:00;13.57;;;7.80;;
56116;SDS011;41989;45.356;20.392;2023-05-07T04:03:26;12.65;;;7.47;;
56116;SDS011;41989;45.356;20.392;2023-05-07T04:05:52;16.05;;;8.43;;
56116;SDS011;41989;45.356;20.392;2023-05-07T04:08:18;11.23;;;7.75;;
56116;SDS011;41989;45.356;20.392;2023-05-07T04:10:44;14.02;;;7.78;;
56116;SDS011;41989;45.356;20.392;2023-05-07T04:13:10;12.38;;;8.30;;
56116;SDS011;41989;45.356;20.392;2023-05-07T04:15:36;15.20;;;7.97;;
56116;SDS011;41989;45.356;20.392;2023-05-07T04:18:03;12.32;;;7.63;;
56116;SDS011;41989;45.356;20.392;2023-05-07T04:20:29;11.63;;;7.47;;
56116;SDS011;41989;45.356;20.392;2023-05-07T04:22:55;10.98;;;7.30;;
56116;SDS011;41989;45.356;20.392;2023-05-07T04:25:21;10.00;;;7.65;;
56116;SDS011;41989;45.356;20.392;2023-05-07T04:27:51;9.10;;;6.85;;
56116;SDS011;41989;45.356;20.392;2023-05-07T04:30:17;12.05;;;6.75;;
56116;SDS011;41989;45.356;20.392;2023-05-07T04:32:43;10.48;;;6.88;;
56116;SDS011;41989;45.356;20.392;2023-05-07T04:35:10;10.25;;;6.82;;
56116;SDS011;41989;45.356;20.392;2023-05-07T04:37:36;10.02;;;7.25;;
56116;SDS011;41989;45.356;20.392;2023-05-07T04:40:05;9.40;;;7.03;;
56116;SDS011;41989;45.356;20.392;2023-05-07T04:42:32;15.18;;;7.70;;
56116;SDS011;41989;45.356;20.392;2023-05-07T04:44:58;9.93;;;6.88;;
56116;SDS011;41989;45.356;20.392;2023-05-07T04:47:27;11.55;;;8.38;;
56116;SDS011;41989;45.356;20.392;2023-05-07T04:49:53;10.35;;;7.90;;
56116;SDS011;41989;45.356;20.392;2023-05-07T04:52:19;10.88;;;7.20;;
56116;SDS011;41989;45.356;20.392;2023-05-07T04:54:45;8.18;;;7.13;;
56116;SDS011;41989;45.356;20.392;2023-05-07T04:57:11;13.93;;;7.55;;
56116;SDS011;41989;45.356;20.392;2023-05-07T04:59:37;11.80;;;6.53;;
56116;SDS011;41989;45.356;20.392;2023-05-07T05:02:03;8.38;;;6.43;;
56116;SDS011;41989;45.356;20.392;2023-05-07T05:04:29;8.57;;;6.18;;
56116;SDS011;41989;45.356;20.392;2023-05-07T05:06:56;15.82;;;6.53;;
56116;SDS011;41989;45.356;20.392;2023-05-07T05:09:22;9.32;;;7.28;;
56116;SDS011;41989;45.356;20.392;2023-05-07T05:11:48;9.30;;;7.03;;
56116;SDS011;41989;45.356;20.392;2023-05-07T05:14:14;19.75;;;6.70;;
56116;SDS011;41989;45.356;20.392;2023-05-07T05:16:40;7.75;;;6.18;;
56116;SDS011;41989;45.356;20.392;2023-05-07T05:19:06;13.10;;;6.40;;
56116;SDS011;41989;45.356;20.392;2023-05-07T05:21:33;11.50;;;6.28;;
56116;SDS011;41989;45.356;20.392;2023-05-07T05:23:59;9.13;;;6.10;;
56116;SDS011;41989;45.356;20.392;2023-05-07T05:26:25;12.57;;;6.45;;
56116;SDS011;41989;45.356;20.392;2023-05-07T05:28:51;8.10;;;6.78;;
56116;SDS011;41989;45.356;20.392;2023-05-07T05:31:17;10.07;;;6.85;;
56116;SDS011;41989;45.356;20.392;2023-05-07T05:33:46;9.35;;;6.13;;
56116;SDS011;41989;45.356;20.392;2023-05-07T05:36:12;11.02;;;6.88;;
56116;SDS011;41989;45.356;20.392;2023-05-07T05:38:39;9.55;;;6.25;;
56116;SDS011;41989;45.356;20.392;2023-05-07T05:41:05;7.90;;;5.65;;
56116;SDS011;41989;45.356;20.392;2023-05-07T05:43:31;12.63;;;6.10;;
56116;SDS011;41989;45.356;20.392;2023-05-07T05:45:57;9.10;;;5.40;;
56116;SDS011;41989;45.356;20.392;2023-05-07T05:48:24;10.93;;;5.85;;
56116;SDS011;41989;45.356;20.392;2023-05-07T05:50:50;8.70;;;6.05;;
56116;SDS011;41989;45.356;20.392;2023-05-07T05:53:25;8.77;;;5.25;;
56116;SDS011;41989;45.356;20.392;2023-05-07T05:55:51;7.53;;;5.00;;
56116;SDS011;41989;45.356;20.392;2023-05-07T05:58:17;9.77;;;5.63;;
56116;SDS011;41989;45.356;20.392;2023-05-07T06:00:44;7.68;;;4.40;;
56116;SDS011;41989;45.356;20.392;2023-05-07T06:03:10;13.07;;;6.28;;
56116;SDS011;41989;45.356;20.392;2023-05-07T06:05:36;8.30;;;5.68;;
56116;SDS011;41989;45.356;20.392;2023-05-07T06:08:02;12.75;;;5.43;;
56116;SDS011;41989;45.356;20.392;2023-05-07T06:10:29;8.05;;;5.25;;
56116;SDS011;41989;45.356;20.392;2023-05-07T06:12:55;8.57;;;5.55;;
56116;SDS011;41989;45.356;20.392;2023-05-07T06:15:21;8.52;;;4.78;;
56116;SDS011;41989;45.356;20.392;2023-05-07T06:17:47;9.65;;;4.35;;
56116;SDS011;41989;45.356;20.392;2023-05-07T06:20:14;10.32;;;5.00;;
56116;SDS011;41989;45.356;20.392;2023-05-07T06:22:40;9.90;;;4.00;;
56116;SDS011;41989;45.356;20.392;2023-05-07T06:25:06;8.00;;;4.57;;
56116;SDS011;41989;45.356;20.392;2023-05-07T06:27:32;11.30;;;3.78;;
56116;SDS011;41989;45.356;20.392;2023-05-07T06:29:59;9.05;;;4.22;;
56116;SDS011;41989;45.356;20.392;2023-05-07T06:32:29;9.68;;;4.95;;
56116;SDS011;41989;45.356;20.392;2023-05-07T06:34:55;7.30;;;4.20;;
56116;SDS011;41989;45.356;20.392;2023-05-07T06:37:21;9.20;;;3.63;;
56116;SDS011;41989;45.356;20.392;2023-05-07T06:39:47;6.88;;;3.47;;
56116;SDS011;41989;45.356;20.392;2023-05-07T06:42:13;8.75;;;3.63;;
56116;SDS011;41989;45.356;20.392;2023-05-07T06:44:39;7.93;;;3.95;;
56116;SDS011;41989;45.356;20.392;2023-05-07T06:47:05;8.55;;;3.50;;
56116;SDS011;41989;45.356;20.392;2023-05-07T06:49:34;7.40;;;3.05;;
56116;SDS011;41989;45.356;20.392;2023-05-07T06:52:03;6.85;;;3.47;;
56116;SDS011;41989;45.356;20.392;2023-05-07T06:54:29;7.45;;;3.67;;
56116;SDS011;41989;45.356;20.392;2023-05-07T06:56:55;15.98;;;7.88;;
56116;SDS011;41989;45.356;20.392;2023-05-07T06:59:21;6.90;;;3.67;;
56116;SDS011;41989;45.356;20.392;2023-05-07T07:01:47;6.13;;;3.50;;
56116;SDS011;41989;45.356;20.392;2023-05-07T07:04:13;7.55;;;3.53;;
56116;SDS011;41989;45.356;20.392;2023-05-07T07:06:39;6.63;;;3.50;;
56116;SDS011;41989;45.356;20.392;2023-05-07T07:09:05;8.40;;;3.50;;
56116;SDS011;41989;45.356;20.392;2023-05-07T07:11:32;10.82;;;3.38;;
56116;SDS011;41989;45.356;20.392;2023-05-07T07:13:58;7.55;;;3.38;;
56116;SDS011;41989;45.356;20.392;2023-05-07T07:16:26;5.80;;;3.13;;
56116;SDS011;41989;45.356;20.392;2023-05-07T07:18:52;5.43;;;3.60;;
56116;SDS011;41989;45.356;20.392;2023-05-07T07:21:18;9.70;;;3.22;;
56116;SDS011;41989;45.356;20.392;2023-05-07T07:23:45;7.13;;;3.10;;
56116;SDS011;41989;45.356;20.392;2023-05-07T07:26:11;10.45;;;3.30;;
56116;SDS011;41989;45.356;20.392;2023-05-07T07:28:43;8.13;;;3.25;;
56116;SDS011;41989;45.356;20.392;2023-05-07T07:31:10;8.07;;;3.40;;
56116;SDS011;41989;45.356;20.392;2023-05-07T07:33:36;7.97;;;3.33;;
56116;SDS011;41989;45.356;20.392;2023-05-07T07:36:02;4.20;;;2.95;;
56116;SDS011;41989;45.356;20.392;2023-05-07T07:38:29;6.45;;;3.30;;
56116;SDS011;41989;45.356;20.392;2023-05-07T07:40:55;8.15;;;3.20;;
56116;SDS011;41989;45.356;20.392;2023-05-07T07:43:21;5.45;;;3.20;;
56116;SDS011;41989;45.356;20.392;2023-05-07T07:45:47;8.45;;;3.30;;
56116;SDS011;41989;45.356;20.392;2023-05-07T07:48:14;5.72;;;3.10;;
56116;SDS011;41989;45.356;20.392;2023-05-07T07:50:40;5.93;;;2.90;;
56116;SDS011;41989;45.356;20.392;2023-05-07T07:53:06;8.52;;;3.30;;
56116;SDS011;41989;45.356;20.392;2023-05-07T07:55:32;7.40;;;3.13;;
56116;SDS011;41989;45.356;20.392;2023-05-07T07:57:58;5.85;;;2.60;;
56116;SDS011;41989;45.356;20.392;2023-05-07T08:00:24;8.85;;;3.35;;
56116;SDS011;41989;45.356;20.392;2023-05-07T08:02:50;6.00;;;2.70;;
56116;SDS011;41989;45.356;20.392;2023-05-07T08:05:16;5.70;;;2.90;;
56116;SDS011;41989;45.356;20.392;2023-05-07T08:07:42;6.18;;;2.67;;
56116;SDS011;41989;45.356;20.392;2023-05-07T08:10:09;7.20;;;3.10;;
56116;SDS011;41989;45.356;20.392;2023-05-07T08:12:38;5.47;;;3.00;;
56116;SDS011;41989;45.356;20.392;2023-05-07T08:15:04;4.95;;;2.90;;
56116;SDS011;41989;45.356;20.392;2023-05-07T08:17:30;8.00;;;2.78;;
56116;SDS011;41989;45.356;20.392;2023-05-07T08:19:56;6.32;;;2.83;;
56116;SDS011;41989;45.356;20.392;2023-05-07T08:22:22;4.63;;;2.78;;
56116;SDS011;41989;45.356;20.392;2023-05-07T08:24:49;7.82;;;2.92;;
56116;SDS011;41989;45.356;20.392;2023-05-07T08:27:15;8.27;;;2.67;;
56116;SDS011;41989;45.356;20.392;2023-05-07T08:29:42;4.72;;;2.65;;
56116;SDS011;41989;45.356;20.392;2023-05-07T08:32:12;5.88;;;3.00;;
56116;SDS011;41989;45.356;20.392;2023-05-07T08:34:38;8.00;;;2.90;;
56116;SDS011;41989;45.356;20.392;2023-05-07T08:37:04;4.93;;;2.65;;
56116;SDS011;41989;45.356;20.392;2023-05-07T08:39:30;4.18;;;2.65;;
56116;SDS011;41989;45.356;20.392;2023-05-07T08:41:56;4.43;;;2.50;;
56116;SDS011;41989;45.356;20.392;2023-05-07T08:44:27;5.35;;;2.67;;
56116;SDS011;41989;45.356;20.392;2023-05-07T08:46:54;3.97;;;2.60;;
56116;SDS011;41989;45.356;20.392;2023-05-07T08:49:21;4.55;;;2.22;;
56116;SDS011;41989;45.356;20.392;2023-05-07T08:51:47;3.80;;;2.25;;
56116;SDS011;41989;45.356;20.392;2023-05-07T08:54:15;5.78;;;2.53;;
56116;SDS011;41989;45.356;20.392;2023-05-07T08:56:45;4.97;;;2.65;;
56116;SDS011;41989;45.356;20.392;2023-05-07T08:59:17;6.47;;;2.67;;
56116;SDS011;41989;45.356;20.392;2023-05-07T09:01:43;5.75;;;3.15;;
56116;SDS011;41989;45.356;20.392;2023-05-07T09:04:12;8.27;;;2.97;;
56116;SDS011;41989;45.356;20.392;2023-05-07T09:06:38;4.30;;;2.60;;
56116;SDS011;41989;45.356;20.392;2023-05-07T09:09:07;3.55;;;2.55;;
56116;SDS011;41989;45.356;20.392;2023-05-07T09:11:33;10.38;;;2.70;;
56116;SDS011;41989;45.356;20.392;2023-05-07T09:13:59;4.60;;;2.80;;
56116;SDS011;41989;45.356;20.392;2023-05-07T09:16:29;4.32;;;2.60;;
56116;SDS011;41989;45.356;20.392;2023-05-07T09:18:56;8.07;;;3.10;;
56116;SDS011;41989;45.356;20.392;2023-05-07T09:21:23;4.55;;;2.50;;
56116;SDS011;41989;45.356;20.392;2023-05-07T09:24:10;4.93;;;2.70;;
56116;SDS011;41989;45.356;20.392;2023-05-07T09:26:35;6.90;;;2.78;;
56116;SDS011;41989;45.356;20.392;2023-05-07T09:29:04;6.13;;;2.78;;
56116;SDS011;41989;45.356;20.392;2023-05-07T09:31:30;5.82;;;2.40;;
56116;SDS011;41989;45.356;20.392;2023-05-07T09:33:57;6.03;;;3.00;;
56116;SDS011;41989;45.356;20.392;2023-05-07T09:36:23;7.53;;;3.13;;
56116;SDS011;41989;45.356;20.392;2023-05-07T09:38:49;5.88;;;3.03;;
56116;SDS011;41989;45.356;20.392;2023-05-07T09:41:16;7.32;;;3.20;;
56116;SDS011;41989;45.356;20.392;2023-05-07T09:43:42;4.78;;;2.70;;
56116;SDS011;41989;45.356;20.392;2023-05-07T09:46:12;8.00;;;2.92;;
56116;SDS011;41989;45.356;20.392;2023-05-07T09:48:38;3.42;;;2.25;;
56116;SDS011;41989;45.356;20.392;2023-05-07T09:51:11;4.85;;;2.58;;
56116;SDS011;41989;45.356;20.392;2023-05-07T09:53:37;6.53;;;2.97;;
56116;SDS011;41989;45.356;20.392;2023-05-07T09:56:04;6.88;;;2.40;;
56116;SDS011;41989;45.356;20.392;2023-05-07T09:58:30;3.97;;;2.17;;
56116;SDS011;41989;45.356;20.392;2023-05-07T10:00:57;8.02;;;2.55;;
56116;SDS011;41989;45.356;20.392;2023-05-07T10:03:27;6.53;;;2.80;;
56116;SDS011;41989;45.356;20.392;2023-05-07T10:05:53;5.55;;;2.15;;
56116;SDS011;41989;45.356;20.392;2023-05-07T10:08:20;5.68;;;3.15;;
56116;SDS011;41989;45.356;20.392;2023-05-07T10:10:46;7.43;;;2.78;;
56116;SDS011;41989;45.356;20.392;2023-05-07T10:13:12;4.55;;;2.38;;
56116;SDS011;41989;45.356;20.392;2023-05-07T10:15:38;4.85;;;2.80;;
56116;SDS011;41989;45.356;20.392;2023-05-07T10:18:05;5.13;;;3.35;;
56116;SDS011;41989;45.356;20.392;2023-05-07T10:20:32;4.43;;;2.70;;
56116;SDS011;41989;45.356;20.392;2023-05-07T10:22:59;3.80;;;2.40;;
56116;SDS011;41989;45.356;20.392;2023-05-07T10:25:30;5.35;;;2.60;;
56116;SDS011;41989;45.356;20.392;2023-05-07T10:27:59;6.50;;;2.50;;
56116;SDS011;41989;45.356;20.392;2023-05-07T10:30:30;4.32;;;2.72;;
56116;SDS011;41989;45.356;20.392;2023-05-07T10:32:59;6.53;;;2.65;;
56116;SDS011;41989;45.356;20.392;2023-05-07T10:35:31;5.32;;;2.95;;
56116;SDS011;41989;45.356;20.392;2023-05-07T10:38:01;6.55;;;2.53;;
56116;SDS011;41989;45.356;20.392;2023-05-07T10:42:55;5.85;;;2.50;;
56116;SDS011;41989;45.356;20.392;2023-05-07T10:45:21;3.92;;;2.40;;
56116;SDS011;41989;45.356;20.392;2023-05-07T10:50:36;6.53;;;2.75;;
56116;SDS011;41989;45.356;20.392;2023-05-07T10:55:44;4.60;;;2.70;;
56116;SDS011;41989;45.356;20.392;2023-05-07T11:03:16;3.75;;;2.08;;
56116;SDS011;41989;45.356;20.392;2023-05-07T11:05:42;6.18;;;2.60;;
56116;SDS011;41989;45.356;20.392;2023-05-07T11:08:09;6.03;;;2.13;;
56116;SDS011;41989;45.356;20.392;2023-05-07T11:10:51;3.15;;;2.00;;
56116;SDS011;41989;45.356;20.392;2023-05-07T11:13:18;3.90;;;1.90;;
56116;SDS011;41989;45.356;20.392;2023-05-07T11:15:47;5.10;;;2.10;;
56116;SDS011;41989;45.356;20.392;2023-05-07T11:20:47;2.80;;;2.00;;
56116;SDS011;41989;45.356;20.392;2023-05-07T11:26:06;4.05;;;2.20;;
56116;SDS011;41989;45.356;20.392;2023-05-07T11:30:58;3.47;;;2.20;;
56116;SDS011;41989;45.356;20.392;2023-05-07T11:33:24;5.43;;;2.30;;
56116;SDS011;41989;45.356;20.392;2023-05-07T11:35:52;4.47;;;2.33;;
56116;SDS011;41989;45.356;20.392;2023-05-07T11:38:25;7.35;;;3.08;;
56116;SDS011;41989;45.356;20.392;2023-05-07T11:40:52;6.35;;;2.40;;
56116;SDS011;41989;45.356;20.392;2023-05-07T11:43:18;4.35;;;2.40;;
56116;SDS011;41989;45.356;20.392;2023-05-07T11:45:48;4.07;;;2.53;;
56116;SDS011;41989;45.356;20.392;2023-05-07T11:48:15;4.22;;;1.92;;
56116;SDS011;41989;45.356;20.392;2023-05-07T11:50:54;3.85;;;1.65;;
56116;SDS011;41989;45.356;20.392;2023-05-07T11:53:25;2.88;;;2.00;;
56116;SDS011;41989;45.356;20.392;2023-05-07T11:55:52;4.45;;;1.98;;
56116;SDS011;41989;45.356;20.392;2023-05-07T11:58:22;6.68;;;2.20;;
56116;SDS011;41989;45.356;20.392;2023-05-07T12:00:49;4.97;;;1.83;;
56116;SDS011;41989;45.356;20.392;2023-05-07T12:03:15;4.13;;;1.85;;
56116;SDS011;41989;45.356;20.392;2023-05-07T12:05:42;3.45;;;2.10;;
56116;SDS011;41989;45.356;20.392;2023-05-07T12:08:10;6.80;;;2.20;;
56116;SDS011;41989;45.356;20.392;2023-05-07T12:10:43;4.22;;;2.50;;
56116;SDS011;41989;45.356;20.392;2023-05-07T12:13:15;6.00;;;2.13;;
56116;SDS011;41989;45.356;20.392;2023-05-07T12:15:45;5.88;;;1.90;;
56116;SDS011;41989;45.356;20.392;2023-05-07T12:18:11;2.15;;;1.52;;
56116;SDS011;41989;45.356;20.392;2023-05-07T12:20:38;3.30;;;1.98;;
56116;SDS011;41989;45.356;20.392;2023-05-07T12:23:04;3.53;;;1.80;;
56116;SDS011;41989;45.356;20.392;2023-05-07T12:25:40;2.85;;;1.85;;
56116;SDS011;41989;45.356;20.392;2023-05-07T12:28:12;5.95;;;2.08;;
56116;SDS011;41989;45.356;20.392;2023-05-07T12:30:40;5.50;;;1.80;;
56116;SDS011;41989;45.356;20.392;2023-05-07T12:33:06;3.45;;;1.90;;
56116;SDS011;41989;45.356;20.392;2023-05-07T12:35:36;4.40;;;2.30;;
56116;SDS011;41989;45.356;20.392;2023-05-07T12:38:07;4.03;;;1.80;;
56116;SDS011;41989;45.356;20.392;2023-05-07T12:40:36;4.17;;;1.97;;
56116;SDS011;41989;45.356;20.392;2023-05-07T12:43:03;6.65;;;1.92;;
56116;SDS011;41989;45.356;20.392;2023-05-07T12:45:29;3.90;;;1.90;;
56116;SDS011;41989;45.356;20.392;2023-05-07T12:47:55;3.65;;;2.00;;
56116;SDS011;41989;45.356;20.392;2023-05-07T12:50:22;7.03;;;1.83;;
56116;SDS011;41989;45.356;20.392;2023-05-07T12:52:48;2.50;;;1.85;;
56116;SDS011;41989;45.356;20.392;2023-05-07T12:55:15;5.95;;;2.83;;
56116;SDS011;41989;45.356;20.392;2023-05-07T12:57:42;6.38;;;2.25;;
56116;SDS011;41989;45.356;20.392;2023-05-07T13:00:08;3.30;;;2.03;;
56116;SDS011;41989;45.356;20.392;2023-05-07T13:02:39;2.95;;;1.77;;
56116;SDS011;41989;45.356;20.392;2023-05-07T13:05:05;5.65;;;2.33;;
56116;SDS011;41989;45.356;20.392;2023-05-07T13:07:32;2.67;;;1.70;;
56116;SDS011;41989;45.356;20.392;2023-05-07T13:09:58;6.60;;;2.05;;
56116;SDS011;41989;45.356;20.392;2023-05-07T13:12:24;3.15;;;1.67;;
56116;SDS011;41989;45.356;20.392;2023-05-07T13:14:50;2.95;;;1.67;;
56116;SDS011;41989;45.356;20.392;2023-05-07T13:17:16;3.03;;;1.60;;
56116;SDS011;41989;45.356;20.392;2023-05-07T13:19:43;2.58;;;1.60;;
56116;SDS011;41989;45.356;20.392;2023-05-07T13:22:12;3.20;;;1.88;;
56116;SDS011;41989;45.356;20.392;2023-05-07T13:24:38;5.60;;;2.17;;
56116;SDS011;41989;45.356;20.392;2023-05-07T13:27:06;2.70;;;1.60;;
56116;SDS011;41989;45.356;20.392;2023-05-07T13:29:32;3.83;;;2.10;;
56116;SDS011;41989;45.356;20.392;2023-05-07T13:31:58;4.95;;;1.90;;
56116;SDS011;41989;45.356;20.392;2023-05-07T13:34:25;2.95;;;1.80;;
56116;SDS011;41989;45.356;20.392;2023-05-07T13:36:52;4.75;;;2.10;;
56116;SDS011;41989;45.356;20.392;2023-05-07T13:41:46;4.93;;;1.58;;
56116;SDS011;41989;45.356;20.392;2023-05-07T13:44:13;3.20;;;1.70;;
56116;SDS011;41989;45.356;20.392;2023-05-07T13:46:39;6.32;;;1.80;;
56116;SDS011;41989;45.356;20.392;2023-05-07T13:49:05;3.28;;;1.92;;
56116;SDS011;41989;45.356;20.392;2023-05-07T13:51:31;3.83;;;1.60;;
56116;SDS011;41989;45.356;20.392;2023-05-07T13:53:57;3.97;;;1.70;;
56116;SDS011;41989;45.356;20.392;2023-05-07T13:56:23;4.78;;;2.13;;
56116;SDS011;41989;45.356;20.392;2023-05-07T13:58:49;3.30;;;1.67;;
56116;SDS011;41989;45.356;20.392;2023-05-07T14:01:15;2.47;;;1.95;;
56116;SDS011;41989;45.356;20.392;2023-05-07T14:03:41;8.85;;;2.25;;
56116;SDS011;41989;45.356;20.392;2023-05-07T14:06:08;2.45;;;1.70;;
56116;SDS011;41989;45.356;20.392;2023-05-07T14:08:34;4.90;;;1.67;;
56116;SDS011;41989;45.356;20.392;2023-05-07T14:11:00;5.28;;;1.50;;
56116;SDS011;41989;45.356;20.392;2023-05-07T14:13:26;5.07;;;1.80;;
56116;SDS011;41989;45.356;20.392;2023-05-07T14:15:52;3.05;;;1.98;;
56116;SDS011;41989;45.356;20.392;2023-05-07T14:18:21;5.65;;;1.60;;
56116;SDS011;41989;45.356;20.392;2023-05-07T14:20:47;1.98;;;1.60;;
56116;SDS011;41989;45.356;20.392;2023-05-07T14:23:14;4.78;;;2.13;;
56116;SDS011;41989;45.356;20.392;2023-05-07T14:25:40;4.28;;;1.60;;
56116;SDS011;41989;45.356;20.392;2023-05-07T14:28:08;3.10;;;1.70;;
56116;SDS011;41989;45.356;20.392;2023-05-07T14:30:34;2.72;;;1.70;;
56116;SDS011;41989;45.356;20.392;2023-05-07T14:33:00;4.15;;;1.85;;
56116;SDS011;41989;45.356;20.392;2023-05-07T14:35:26;5.45;;;1.60;;
56116;SDS011;41989;45.356;20.392;2023-05-07T14:37:52;3.80;;;2.40;;
56116;SDS011;41989;45.356;20.392;2023-05-07T14:40:18;5.57;;;2.13;;
56116;SDS011;41989;45.356;20.392;2023-05-07T14:42:45;6.07;;;2.15;;
56116;SDS011;41989;45.356;20.392;2023-05-07T14:45:11;4.82;;;2.08;;
56116;SDS011;41989;45.356;20.392;2023-05-07T14:47:37;8.27;;;1.67;;
56116;SDS011;41989;45.356;20.392;2023-05-07T14:50:10;5.40;;;2.08;;
56116;SDS011;41989;45.356;20.392;2023-05-07T14:52:36;3.47;;;1.88;;